Time;durP1;ratioP1;P1;durP2;ratioP2;P2;SDS_P1;SDS_P2;PMS_P1;PMS_P2;Temp;Humidity;BMP_temperature;BMP_pressure;BME280_temperature;BME280_humidity;BME280_pressure;Samples;Min_cycle;Max_cycle;Signal;HPM_P1;HPM_P2
2021/06/15 01:39:13;;;;;;;5.70;5.20;;;;;;;;;;5072880;22;20520;-96
2021/06/15 01:42:06;;;;;;;5.17;4.67;;;;;;;;;;5016061;28;20524;-96
2021/06/15 02:03:13;;;;;;;8.63;6.17;;;;;;;;;;5015189;28;20486;-96
2021/06/15 02:14:17;;;;;;;7.33;6.50;;;;;;;;;;5031682;28;20457;-96
2021/06/15 02:16:46;;;;;;;13.07;5.67;;;;;;;;;;5031144;28;20437;-96
2021/06/15 02:19:21;;;;;;;7.60;6.60;;;;;;;;;;5032976;28;20527;-96
2021/06/15 02:21:50;;;;;;;6.67;5.97;;;;;;;;;;5029284;28;20571;-96
2021/06/15 02:24:18;;;;;;;7.40;5.23;;;;;;;;;;5028450;28;20467;-96
2021/06/15 02:26:48;;;;;;;7.80;6.40;;;;;;;;;;5026335;28;20494;-96
2021/06/15 02:29:15;;;;;;;7.57;5.70;;;;;;;;;;5020274;28;20483;-96
2021/06/15 02:31:44;;;;;;;9.03;6.03;;;;;;;;;;5025174;28;20456;-96
2021/06/15 02:34:13;;;;;;;7.60;5.70;;;;;;;;;;5029086;28;20523;-96
2021/06/15 02:36:42;;;;;;;7.40;5.83;;;;;;;;;;5027838;28;20477;-96
2021/06/15 02:39:11;;;;;;;7.47;5.53;;;;;;;;;;5033075;28;20466;-96
2021/06/15 02:41:38;;;;;;;7.60;6.40;;;;;;;;;;5031880;28;20491;-96
2021/06/15 02:44:08;;;;;;;6.93;6.33;;;;;;;;;;5031645;28;20527;-96
2021/06/15 02:46:36;;;;;;;8.03;6.10;;;;;;;;;;5030007;28;20482;-96
2021/06/15 02:49:07;;;;;;;6.73;5.63;;;;;;;;;;5028994;28;20456;-96
2021/06/15 02:51:40;;;;;;;5.80;5.20;;;;;;;;;;5031737;28;20467;-96
2021/06/15 02:54:13;;;;;;;6.87;5.60;;;;;;;;;;5037221;28;20458;-96
2021/06/15 02:56:43;;;;;;;6.50;5.43;;;;;;;;;;5031209;28;20443;-96
2021/06/15 02:59:11;;;;;;;6.10;5.50;;;;;;;;;;5030071;28;20460;-96
2021/06/15 03:01:38;;;;;;;5.67;5.00;;;;;;;;;;5030231;28;20478;-96
2021/06/15 03:04:04;;;;;;;6.53;5.70;;;;;;;;;;5026751;28;20536;-96
2021/06/15 03:06:31;;;;;;;7.00;5.50;;;;;;;;;;5027645;28;20495;-96
2021/06/15 03:08:58;;;;;;;8.13;5.70;;;;;;;;;;5025814;28;20460;-96
2021/06/15 03:11:27;;;;;;;8.57;5.87;;;;;;;;;;5027608;28;20448;-96
2021/06/15 03:13:55;;;;;;;7.43;6.13;;;;;;;;;;5026035;28;20459;-96
2021/06/15 03:16:26;;;;;;;8.63;6.67;;;;;;;;;;5028033;28;20463;-95
2021/06/15 03:18:57;;;;;;;8.67;6.40;;;;;;;;;;5026116;28;20462;-96
2021/06/15 03:21:25;;;;;;;7.90;6.20;;;;;;;;;;5029019;28;20471;-95
2021/06/15 03:23:53;;;;;;;7.87;6.93;;;;;;;;;;5026178;28;20456;-96
2021/06/15 03:26:22;;;;;;;8.30;6.83;;;;;;;;;;5027420;28;20490;-96
2021/06/15 03:28:52;;;;;;;14.37;8.33;;;;;;;;;;5024732;28;20469;-96
2021/06/15 03:31:21;;;;;;;10.97;7.63;;;;;;;;;;5033597;28;20458;-96
2021/06/15 03:33:50;;;;;;;11.70;7.60;;;;;;;;;;5027834;28;20471;-96
2021/06/15 03:36:17;;;;;;;13.43;9.33;;;;;;;;;;5029776;28;20458;-95
2021/06/15 03:38:45;;;;;;;15.00;10.53;;;;;;;;;;5027505;28;20445;-96
2021/06/15 03:41:12;;;;;;;25.93;16.63;;;;;;;;;;5028162;28;20445;-96
2021/06/15 03:43:41;;;;;;;27.77;16.37;;;;;;;;;;5029794;28;20468;-96
2021/06/15 03:49:13;;;;;;;16.80;11.90;;;;;;;;;;5031982;28;20481;-96
2021/06/15 03:51:42;;;;;;;16.07;11.00;;;;;;;;;;5031923;28;20524;-96
2021/06/15 04:05:11;;;;;;;50.03;38.97;;;;;;;;;;5054655;28;20485;-96
2021/06/15 04:07:42;;;;;;;52.20;41.17;;;;;;;;;;5046998;28;20496;-96
2021/06/15 04:10:10;;;;;;;55.87;37.20;;;;;;;;;;5049193;28;21092;-96
2021/06/15 04:12:37;;;;;;;54.47;37.27;;;;;;;;;;5047985;28;20851;-96
2021/06/15 04:15:06;;;;;;;59.67;40.00;;;;;;;;;;5048079;28;20459;-96
2021/06/15 04:17:45;;;;;;;61.80;41.37;;;;;;;;;;5051686;28;20442;-96
2021/06/15 04:23:30;;;;;;;37.83;24.07;;;;;;;;;;4998277;28;20464;-96
2021/06/15 04:46:57;;;;;;;67.80;18.77;;;;;;;;;;5051444;22;21168;-96
2021/06/15 04:50:21;;;;;;;51.93;17.30;;;;;;;;;;5013267;28;20428;-96
2021/06/15 04:55:26;;;;;;;49.87;20.13;;;;;;;;;;5264823;22;20588;-96
2021/06/15 04:57:55;;;;;;;43.67;17.10;;;;;;;;;;5031214;28;20477;-96
2021/06/15 05:00:22;;;;;;;23.37;15.90;;;;;;;;;;5032345;28;20484;-96
2021/06/15 05:05:49;;;;;;;25.00;15.83;;;;;;;;;;5069701;22;20492;-96
2021/06/15 05:08:20;;;;;;;25.57;16.17;;;;;;;;;;5014758;28;20484;-96
2021/06/15 07:13:25;;;;;;;13.87;11.13;;;;;;;;;;5088108;22;20492;-96
2021/06/15 07:15:53;;;;;;;14.53;10.90;;;;;;;;;;5016319;28;20459;-96
2021/06/15 07:21:47;;;;;;;15.27;11.17;;;;;;;;;;5014200;28;20440;-96
2021/06/15 07:27:21;;;;;;;13.67;11.43;;;;;;;;;;5156229;22;20479;-96
2021/06/15 07:29:55;;;;;;;13.50;11.17;;;;;;;;;;5041960;28;20458;-96
2021/06/15 07:32:23;;;;;;;11.97;10.50;;;;;;;;;;5045747;28;20510;-96
2021/06/15 07:50:49;;;;;;;13.13;9.90;;;;;;;;;;5052758;28;20993;-96
2021/06/15 07:53:16;;;;;;;9.63;8.73;;;;;;;;;;5068234;28;20457;-95
2021/06/15 07:55:43;;;;;;;13.10;9.63;;;;;;;;;;5068720;28;20458;-94
2021/06/15 07:58:13;;;;;;;11.60;8.47;;;;;;;;;;5065179;28;20454;-96
2021/06/15 08:03:31;;;;;;;10.43;9.30;;;;;;;;;;5170702;23;20471;-96
2021/06/15 08:09:00;;;;;;;10.20;7.90;;;;;;;;;;5074822;23;20479;-96
2021/06/15 08:11:27;;;;;;;11.13;8.97;;;;;;;;;;5008936;28;20461;-96
2021/06/15 08:13:56;;;;;;;9.10;8.17;;;;;;;;;;5009210;28;20461;-94
2021/06/15 08:18:58;;;;;;;8.63;7.30;;;;;;;;;;5100365;23;20495;-96
2021/06/15 08:21:27;;;;;;;8.07;7.30;;;;;;;;;;5010899;28;20483;-96
2021/06/15 08:23:54;;;;;;;9.00;7.93;;;;;;;;;;5004512;28;20488;-95
2021/06/15 08:26:22;;;;;;;8.53;7.57;;;;;;;;;;5009434;28;20441;-96
2021/06/15 08:28:48;;;;;;;7.03;6.40;;;;;;;;;;5009181;28;20492;-94
2021/06/15 08:31:31;;;;;;;9.27;6.90;;;;;;;;;;5009683;28;20455;-96
2021/06/15 08:34:00;;;;;;;7.60;6.77;;;;;;;;;;5007110;28;20835;-95
2021/06/15 08:36:28;;;;;;;7.23;6.40;;;;;;;;;;5268191;22;20504;-96
2021/06/15 08:38:55;;;;;;;8.00;6.80;;;;;;;;;;5005352;28;20479;-94
2021/06/15 08:41:23;;;;;;;7.63;6.93;;;;;;;;;;5009676;28;20465;-96
2021/06/15 08:43:50;;;;;;;8.67;7.30;;;;;;;;;;5004351;28;20456;-94
2021/06/15 08:46:16;;;;;;;8.20;7.20;;;;;;;;;;5001667;28;20465;-95
2021/06/15 08:49:16;;;;;;;6.27;5.77;;;;;;;;;;5005100;28;20498;-96
2021/06/15 08:57:43;;;;;;;10.50;7.03;;;;;;;;;;5055231;23;20488;-96
2021/06/15 09:00:13;;;;;;;6.60;5.17;;;;;;;;;;5010471;28;20467;-96
2021/06/15 09:02:44;;;;;;;6.50;6.00;;;;;;;;;;4993639;28;20471;-96
2021/06/15 09:05:18;;;;;;;6.53;5.83;;;;;;;;;;5181754;22;20506;-96
2021/06/15 09:08:00;;;;;;;6.50;6.00;;;;;;;;;;5005403;28;20495;-96
2021/06/15 09:10:27;;;;;;;6.70;6.10;;;;;;;;;;5007684;28;20455;-96
2021/06/15 09:12:55;;;;;;;6.17;5.67;;;;;;;;;;5000147;28;20467;-96
2021/06/15 09:15:23;;;;;;;6.90;6.20;;;;;;;;;;5001101;28;20458;-96
2021/06/15 09:17:50;;;;;;;7.33;6.73;;;;;;;;;;5011243;28;20460;-96
2021/06/15 09:25:41;;;;;;;7.57;6.87;;;;;;;;;;5015377;28;20488;-96
2021/06/15 09:28:29;;;;;;;5.33;4.90;;;;;;;;;;5029589;28;20496;-96
2021/06/15 09:31:07;;;;;;;6.57;4.47;;;;;;;;;;5018701;28;20444;-96
2021/06/15 09:33:43;;;;;;;4.70;4.30;;;;;;;;;;5030116;28;20479;-95
2021/06/15 09:36:26;;;;;;;5.00;4.60;;;;;;;;;;5026105;28;20459;-96
2021/06/15 09:39:07;;;;;;;6.10;5.40;;;;;;;;;;5023034;28;20483;-96
2021/06/15 09:41:48;;;;;;;5.80;5.30;;;;;;;;;;5012735;28;20440;-96
2021/06/15 09:44:34;;;;;;;5.50;4.97;;;;;;;;;;5011931;28;20467;-95
2021/06/15 09:47:06;;;;;;;4.90;4.40;;;;;;;;;;5025241;28;20463;-96
2021/06/15 09:52:24;;;;;;;4.43;4.00;;;;;;;;;;5165829;23;20515;-96
2021/06/15 10:04:27;;;;;;;4.73;4.33;;;;;;;;;;5018360;23;20512;-96
2021/06/15 10:07:15;;;;;;;4.73;4.43;;;;;;;;;;4972872;28;20466;-96
2021/06/15 10:10:02;;;;;;;7.23;6.53;;;;;;;;;;4965846;29;20498;-96
2021/06/15 10:12:42;;;;;;;5.53;5.10;;;;;;;;;;4999961;23;20492;-96
2021/06/15 10:15:16;;;;;;;5.17;4.77;;;;;;;;;;5008342;28;20441;-96
2021/06/15 10:20:19;;;;;;;5.47;4.97;;;;;;;;;;5051483;23;21077;-95
2021/06/15 10:22:54;;;;;;;5.20;4.70;;;;;;;;;;5008136;28;20432;-96
2021/06/15 10:25:25;;;;;;;5.30;4.90;;;;;;;;;;5008722;28;20482;-95
2021/06/15 10:27:55;;;;;;;4.60;4.23;;;;;;;;;;5016058;23;20568;-95
2021/06/15 10:33:29;;;;;;;4.10;3.80;;;;;;;;;;5047363;28;20453;-96
2021/06/15 10:44:33;;;;;;;3.70;3.40;;;;;;;;;;4986699;28;20450;-96
2021/06/15 10:49:57;;;;;;;5.10;4.70;;;;;;;;;;5024591;23;20461;-96
2021/06/15 10:52:26;;;;;;;4.17;3.87;;;;;;;;;;5025899;23;20484;-92
2021/06/15 10:55:35;;;;;;;4.57;4.17;;;;;;;;;;5071121;28;20434;-96
2021/06/15 10:58:10;;;;;;;7.93;5.77;;;;;;;;;;5048317;23;20501;-96
2021/06/15 11:01:01;;;;;;;6.50;5.70;;;;;;;;;;5000545;28;20510;-95
2021/06/15 11:03:49;;;;;;;4.07;3.77;;;;;;;;;;5099587;23;20546;-96
2021/06/15 11:06:38;;;;;;;6.20;5.70;;;;;;;;;;5029548;28;20431;-94
2021/06/15 11:09:35;;;;;;;4.50;4.20;;;;;;;;;;5023453;28;20547;-96
2021/06/15 11:15:20;;;;;;;4.33;3.93;;;;;;;;;;5012205;28;20458;-95
2021/06/15 11:17:53;;;;;;;3.80;3.37;;;;;;;;;;5055524;23;20487;-96
2021/06/15 11:20:35;;;;;;;6.63;4.63;;;;;;;;;;5144864;22;20462;-96
2021/06/15 11:23:35;;;;;;;4.40;4.10;;;;;;;;;;5071842;23;20573;-96
2021/06/15 11:32:20;;;;;;;5.80;3.70;;;;;;;;;;5047317;23;20486;-94
2021/06/15 11:35:08;;;;;;;4.00;3.70;;;;;;;;;;5071332;28;20449;-96
2021/06/15 11:37:46;;;;;;;7.10;3.40;;;;;;;;;;5071063;28;20447;-96
2021/06/15 11:40:30;;;;;;;4.33;4.00;;;;;;;;;;5069170;28;20450;-96
2021/06/15 11:49:12;;;;;;;4.57;3.80;;;;;;;;;;5095063;23;20500;-96
2021/06/15 11:54:23;;;;;;;4.20;3.40;;;;;;;;;;5083521;22;20500;-95
2021/06/15 11:56:50;;;;;;;4.30;3.47;;;;;;;;;;5015200;28;20437;-96
2021/06/15 11:59:18;;;;;;;6.17;5.57;;;;;;;;;;5043134;22;20486;-95
2021/06/15 12:02:04;;;;;;;6.53;6.07;;;;;;;;;;5016989;23;20516;-96
2021/06/15 12:04:31;;;;;;;4.13;3.83;;;;;;;;;;5034708;28;20447;-94
2021/06/15 12:10:00;;;;;;;3.23;3.03;;;;;;;;;;5071417;22;20499;-94
2021/06/15 12:13:00;;;;;;;3.40;3.20;;;;;;;;;;5008578;28;20461;-96
2021/06/15 12:15:46;;;;;;;4.10;3.23;;;;;;;;;;5051348;23;20501;-95
2021/06/15 12:18:33;;;;;;;3.10;2.80;;;;;;;;;;5009807;28;20483;-96
2021/06/15 12:23:59;;;;;;;4.17;3.90;;;;;;;;;;4962779;26;20463;-96
2021/06/15 12:26:46;;;;;;;6.13;5.53;;;;;;;;;;5030829;28;20443;-96
2021/06/15 12:31:50;;;;;;;3.07;2.87;;;;;;;;;;5008400;28;20448;-95
2021/06/15 12:37:03;;;;;;;3.10;2.77;;;;;;;;;;4999588;28;20508;-96
2021/06/15 12:42:09;;;;;;;2.83;2.73;;;;;;;;;;5011618;28;20457;-96
2021/06/15 12:45:09;;;;;;;4.30;3.03;;;;;;;;;;5007378;28;20476;-96
2021/06/15 12:47:50;;;;;;;3.07;2.87;;;;;;;;;;5007950;28;20452;-93
2021/06/15 12:52:53;;;;;;;2.90;2.70;;;;;;;;;;4956940;28;981334;-95
2021/06/15 12:58:14;;;;;;;4.43;4.03;;;;;;;;;;4983391;28;20530;-93
2021/06/15 13:00:48;;;;;;;3.63;2.93;;;;;;;;;;4993685;28;20495;-93
2021/06/15 13:20:30;;;;;;;6.37;2.70;;;;;;;;;;3210485;26;20481;-94
2021/06/15 13:22:59;;;;;;;2.50;2.30;;;;;;;;;;5030873;28;20448;-94
2021/06/15 13:25:27;;;;;;;2.33;2.13;;;;;;;;;;5030194;28;20487;-94
2021/06/15 13:33:35;;;;;;;4.80;2.50;;;;;;;;;;3914350;23;20267;-95
2021/06/15 13:41:41;;;;;;;2.40;2.20;;;;;;;;;;5008797;28;20480;-96
2021/06/15 13:44:07;;;;;;;3.63;2.10;;;;;;;;;;5007218;28;20450;-93
2021/06/15 13:46:35;;;;;;;2.20;2.03;;;;;;;;;;5009429;28;20452;-96
2021/06/15 13:49:02;;;;;;;2.37;2.17;;;;;;;;;;5006184;28;20488;-96
2021/06/15 13:51:29;;;;;;;2.87;2.13;;;;;;;;;;5007767;28;20450;-94
2021/06/15 13:54:01;;;;;;;4.73;2.40;;;;;;;;;;5006369;28;20460;-96
2021/06/15 13:56:31;;;;;;;2.57;2.07;;;;;;;;;;5006548;28;20457;-95
2021/06/15 13:59:01;;;;;;;3.30;2.53;;;;;;;;;;5008462;28;20537;-95
2021/06/15 14:01:35;;;;;;;6.90;2.60;;;;;;;;;;5008954;28;20462;-96
2021/06/15 14:04:07;;;;;;;6.50;2.53;;;;;;;;;;5008328;28;20452;-96
2021/06/15 14:06:37;;;;;;;2.87;2.67;;;;;;;;;;5008480;28;20533;-96
2021/06/15 14:09:05;;;;;;;2.60;2.07;;;;;;;;;;5005566;28;20522;-95
2021/06/15 14:11:33;;;;;;;2.63;2.10;;;;;;;;;;5007407;28;20463;-94
2021/06/15 14:14:04;;;;;;;2.07;1.97;;;;;;;;;;5012827;28;20466;-96
2021/06/15 14:16:33;;;;;;;2.17;1.97;;;;;;;;;;5006096;28;20446;-96
2021/06/15 14:19:04;;;;;;;3.23;2.37;;;;;;;;;;5004471;28;20821;-96
2021/06/15 14:21:39;;;;;;;3.33;2.60;;;;;;;;;;5004797;28;20470;-95
2021/06/15 14:24:10;;;;;;;2.57;2.37;;;;;;;;;;5001820;28;20444;-96
2021/06/15 14:26:38;;;;;;;5.10;2.60;;;;;;;;;;5003861;28;20462;-95
2021/06/15 14:29:04;;;;;;;2.67;2.10;;;;;;;;;;5004383;28;20495;-93
2021/06/15 14:31:33;;;;;;;6.00;2.30;;;;;;;;;;5007632;28;20459;-93
2021/06/15 14:34:00;;;;;;;2.00;1.90;;;;;;;;;;5012490;28;20484;-94
2021/06/15 14:39:15;;;;;;;2.10;2.00;;;;;;;;;;5012877;28;20526;-91
2021/06/15 14:41:42;;;;;;;2.10;1.60;;;;;;;;;;5009121;28;20464;-96
2021/06/15 14:44:09;;;;;;;2.07;1.97;;;;;;;;;;5017876;22;20518;-95
2021/06/15 14:46:37;;;;;;;2.33;2.20;;;;;;;;;;5011964;28;20447;-96
2021/06/15 14:49:04;;;;;;;2.20;2.10;;;;;;;;;;5011895;28;20557;-92
2021/06/15 14:51:30;;;;;;;2.43;1.83;;;;;;;;;;5011271;28;20477;-95
2021/06/15 14:54:04;;;;;;;2.30;2.20;;;;;;;;;;5009370;28;20452;-96
2021/06/15 14:57:13;;;;;;;1.93;1.83;;;;;;;;;;5036610;23;20571;-94
2021/06/15 14:59:42;;;;;;;2.13;2.03;;;;;;;;;;5005628;28;20465;-96
2021/06/15 15:02:15;;;;;;;2.23;2.07;;;;;;;;;;5009002;28;20441;-96
2021/06/15 15:04:44;;;;;;;2.20;2.00;;;;;;;;;;5010146;28;20472;-96
2021/06/15 15:07:13;;;;;;;1.97;1.83;;;;;;;;;;5010445;28;20448;-96
2021/06/15 15:09:39;;;;;;;7.30;2.10;;;;;;;;;;5009169;28;20484;-95
2021/06/15 15:12:07;;;;;;;2.43;1.90;;;;;;;;;;5011121;28;20484;-96
2021/06/15 15:14:33;;;;;;;3.30;2.23;;;;;;;;;;5014128;28;20456;-95
2021/06/15 15:17:16;;;;;;;4.60;2.30;;;;;;;;;;5008661;28;20492;-95
2021/06/15 15:22:26;;;;;;;3.13;2.30;;;;;;;;;;5004152;28;20444;-96
2021/06/15 15:24:54;;;;;;;2.47;2.20;;;;;;;;;;4990431;28;20456;-93
2021/06/15 15:27:21;;;;;;;6.47;2.50;;;;;;;;;;5005516;28;20491;-96
2021/06/15 15:29:51;;;;;;;2.90;2.20;;;;;;;;;;5010482;23;20500;-95
2021/06/15 15:35:38;;;;;;;3.40;2.40;;;;;;;;;;5014740;28;20431;-96
2021/06/15 15:58:05;;;;;;;2.17;2.00;;;;;;;;;;5271299;22;20552;-95
2021/06/15 16:03:10;;;;;;;2.50;2.30;;;;;;;;;;4597830;26;20482;-96
2021/06/15 16:08:23;;;;;;;2.40;2.17;;;;;;;;;;5544544;23;20491;-95
2021/06/15 16:14:01;;;;;;;2.80;2.60;;;;;;;;;;5093429;23;20489;-96
2021/06/15 16:16:29;;;;;;;2.70;2.40;;;;;;;;;;4986743;28;20446;-93
2021/06/15 16:19:02;;;;;;;2.90;2.40;;;;;;;;;;4988951;28;20455;-94
2021/06/15 16:21:28;;;;;;;3.17;2.90;;;;;;;;;;4988248;28;20493;-95
2021/06/15 16:23:55;;;;;;;3.70;2.60;;;;;;;;;;4987400;28;20485;-95
2021/06/15 16:26:25;;;;;;;4.00;2.93;;;;;;;;;;4988209;28;20445;-95
2021/06/15 16:28:51;;;;;;;2.73;2.53;;;;;;;;;;4987121;28;20450;-96
2021/06/15 16:31:20;;;;;;;3.10;2.50;;;;;;;;;;4988442;28;20456;-96
2021/06/15 16:33:52;;;;;;;4.43;2.43;;;;;;;;;;4987676;28;20446;-96
2021/06/15 16:36:22;;;;;;;3.50;2.50;;;;;;;;;;5011144;23;20527;-96
2021/06/15 16:38:49;;;;;;;2.07;1.97;;;;;;;;;;5031047;28;20464;-93
2021/06/15 16:41:37;;;;;;;2.50;2.40;;;;;;;;;;5030117;28;20478;-96
2021/06/15 16:46:41;;;;;;;3.50;2.70;;;;;;;;;;5108586;22;20485;-95
2021/06/15 16:51:54;;;;;;;2.47;2.33;;;;;;;;;;5004124;28;20456;-96
2021/06/15 16:54:20;;;;;;;2.77;2.50;;;;;;;;;;5007366;28;20459;-94
2021/06/15 16:56:49;;;;;;;3.50;2.60;;;;;;;;;;5001050;28;20457;-96
2021/06/15 16:59:19;;;;;;;2.47;2.37;;;;;;;;;;5007674;28;20452;-96
2021/06/15 17:04:46;;;;;;;2.80;2.47;;;;;;;;;;5007132;28;20433;-96
2021/06/15 17:07:13;;;;;;;3.00;2.67;;;;;;;;;;5005511;28;20472;-95
2021/06/15 17:12:25;;;;;;;7.20;2.43;;;;;;;;;;5042974;22;20471;-96
2021/06/15 17:14:54;;;;;;;2.30;2.20;;;;;;;;;;5176279;23;21022;-96
2021/06/15 17:22:49;;;;;;;2.93;2.63;;;;;;;;;;1862730;23;20896;-95
2021/06/15 17:25:35;;;;;;;3.17;2.97;;;;;;;;;;5045130;28;20477;-96
2021/06/15 17:33:55;;;;;;;2.60;2.40;;;;;;;;;;5011488;28;20456;-95
2021/06/15 17:36:24;;;;;;;2.70;2.50;;;;;;;;;;5015481;23;20496;-94
2021/06/15 17:39:09;;;;;;;2.50;2.30;;;;;;;;;;5004857;28;20464;-96
2021/06/15 17:41:57;;;;;;;3.30;2.77;;;;;;;;;;5002083;28;20437;-96
2021/06/15 17:44:38;;;;;;;3.47;3.20;;;;;;;;;;5008850;28;20460;-96
2021/06/15 17:47:07;;;;;;;3.50;2.57;;;;;;;;;;5048344;22;21574;-96
2021/06/15 17:50:00;;;;;;;6.13;2.60;;;;;;;;;;5010197;28;20506;-97
2021/06/15 18:03:42;;;;;;;3.80;3.20;;;;;;;;;;3194613;22;20544;31
2021/06/15 18:09:22;;;;;;;3.27;2.97;;;;;;;;;;5056528;22;20512;-96
2021/06/15 18:11:54;;;;;;;2.80;2.60;;;;;;;;;;5003511;28;20440;-96
2021/06/15 19:19:13;;;;;;;5.07;4.67;;;;;;;;;;5482627;22;20506;-96
2021/06/15 19:27:10;;;;;;;3.03;2.73;;;;;;;;;;5306179;23;20480;-96
2021/06/15 20:45:58;;;;;;;3.47;2.90;;;;;;;;;;5649793;23;20600;-96
2021/06/15 21:20:09;;;;;;;3.07;2.87;;;;;;;;;;6162110;22;20434;31
2021/06/15 22:40:05;;;;;;;4.40;3.17;;;;;;;;;;5484604;22;20503;-96
2021/06/15 22:42:32;;;;;;;4.93;2.77;;;;;;;;;;5012480;28;20453;-96
2021/06/15 23:18:56;;;;;;;23.37;21.20;;;;;;;;;;5001527;28;20476;-96
2021/06/15 23:29:09;;;;;;;7.10;6.50;;;;;;;;;;5080487;23;20500;-96
